• Join FlightAware (Why Join?)
  • Login
  • US Flag 
02:49PM EDT


 

Airport Tracker/Info


-or-


 

Live Flight TrackerFlight Track Log ✈ N18308 ✈ 11-Jul-2014 ✈ KUGN - KVPC

Flight Track Log - Related Links

Times and Time Zones

All times are in EDT time to prevent confusion due to time zone crossing. See the N18308 flight status page for this flight to view local times or setup timezone preferences in your user account.

Time Position Orientation Groundspeed Altitude Reporting Facility
EDT Latitude Longitude Course Direction KTS MPH feet Rate Location/Type
02:44PM 42.4000 -87.8500 173° South 88 101 1,600  Level Chicago TRACON
02:45PM 42.3833 -87.8167 124° Southeast 103 119 2,300 780 Climbing Chicago TRACON
02:46PM 42.3769 -87.8131 157° South 38 44 2,900 900 Climbing Chicago Center
02:47PM 42.3481 -87.8194 189° South 93 107 3,900 1,020 Climbing Chicago Center
02:48PM 42.3197 -87.8489 218° Southwest 110 127 5,100 960 Climbing Chicago Center
02:49PM 42.2925 -87.8767 217° Southwest 113 130 6,000 360 Climbing Chicago Center
02:50PM 42.1181 -87.8447 173° South  Level FlightAware Approximate
02:50PM 42.2586 -87.9058 212° Southwest 146 168 5,900  Level Chicago Center
02:51PM 42.2178 -87.9383 211° Southwest 160 184 6,000  Climbing Chicago Center
02:52PM 42.1722 -87.9242 167° South 166 191 5,900 -60 Descending Chicago Center
02:53PM 42.1219 -87.9172 174° South 168 193 5,900  Level Chicago Center
02:54PM 42.0756 -87.9200 183° South 168 193 5,900  Level Chicago Center
02:55PM 42.0256 -87.9200 180° South 167 192 5,900  Level Chicago Center
02:56PM 41.9792 -87.9222 182° South 166 191 5,900  Level Chicago Center
02:57PM 41.9294 -87.9247 182° South 167 192 5,900  Level Chicago Center
02:58PM 41.8842 -87.9178 173° South 165 190 5,900 300 Level Chicago Center
03:00PM 41.8378 -87.9064 170° South 162 186 6,600 720 Climbing Chicago Center
03:01PM 41.7997 -87.8936 166° South 143 165 7,500 840 Climbing Chicago Center
03:02PM 41.7608 -87.8844 170° South 134 154 8,400 900 Climbing Chicago Center
03:03PM 41.7244 -87.8800 175° South 130 150 9,400 960 Climbing Chicago Center
03:04PM 41.6844 -87.8719 171° South 133 153 10,500 720 Climbing Chicago Center
03:05PM 41.6461 -87.8664 174° South 140 161 11,000 240 Climbing Chicago Center
03:06PM 41.5922 -87.8561 172° South 183 211 11,000  Level Chicago Center
03:07PM 41.5406 -87.8467 172° South 185 213 11,000 -60 Level Chicago Center
03:08PM 41.4861 -87.8358 172° South 186 214 10,900 420 Descending Chicago Center
03:09PM 41.4394 -87.8267 172° South 169 194 11,900 960 Climbing Chicago Center
03:10PM 41.3953 -87.8183 172° South 153 176 12,900 480 Climbing Chicago Center
03:11PM 41.3494 -87.8094 172° South 169 194 12,900  Level Chicago Center
03:12PM 41.2944 -87.8003 173° South 183 211 12,900  Level Chicago Center
03:13PM 41.2483 -87.7739 157° South 188 216 12,900  Level Chicago Center
03:14PM 41.2044 -87.7272 141° Southeast 190 219 12,900 -120 Level Chicago Center
03:15PM 41.1625 -87.6856 143° Southeast 189 217 12,700 -300 Descending Chicago Center
03:16PM 41.1153 -87.6381 143° Southeast 196 226 12,400 -300 Descending Chicago Center
03:17PM 41.0717 -87.5939 143° Southeast 197 227 12,200 -300 Descending Chicago Center
03:18PM 41.0244 -87.5458 142° Southeast 201 231 11,900 -300 Descending Chicago Center
03:19PM 40.9806 -87.5011 142° Southeast 200 230 11,600 -300 Descending Chicago Center
03:20PM 40.9369 -87.4575 143° Southeast 198 228 11,300 -300 Descending Chicago Center
03:21PM 40.8944 -87.4161 144° Southeast 197 227 11,000 -240 Descending Chicago Center
03:22PM 40.8533 -87.3728 141° Southeast 193 222 10,900 -60 Descending Chicago Center
03:23PM 40.8125 -87.3317 143° Southeast 188 216 10,900  Level Chicago Center
03:24PM 40.7647 -87.2850 144° Southeast 181 208 10,900  Level Chicago Center
03:25PM 40.7250 -87.2447 142° Southeast 181 208 10,900  Level Chicago Center
03:26PM 40.6856 -87.2039 142° Southeast 181 208 10,900  Level Chicago Center
03:27PM 40.6456 -87.1653 144° Southeast 180 207 10,900  Level Chicago Center
03:29PM 40.6061 -87.1244 142° Southeast 180 207 10,900  Level Chicago Center
03:30PM 40.5628 -87.0819 143° Southeast 180 207 10,900  Level Chicago Center
03:31PM 40.5181 -87.0600 160° South 173 199 10,900  Level Chicago Center
03:32PM 40.4719 -87.0436 165° South 170 196 10,900  Level Chicago Center
03:33PM 40.4161 -87.0228 164° South 172 198 10,900  Level Chicago Center
03:34PM 40.3697 -87.0058 164° South 172 198 10,900  Level Chicago Center
03:35PM 40.3236 -86.9889 164° South 172 198 10,900  Level Chicago Center
03:36PM 40.2775 -86.9717 164° South 172 198 10,900  Level Chicago Center
03:37PM 40.2311 -86.9550 165° South 172 198 10,900  Level Chicago Center
03:38PM 40.1753 -86.9333 163° South 172 198 10,900  Level Chicago Center
03:39PM 40.1000 -86.9000 161° South 184 212 11,000  Climbing Indianapolis TRACON
03:40PM 40.0500 -86.8833 166° South 168 193 11,000  Level Indianapolis TRACON
03:41PM 40.0000 -86.8667 166° South 170 196 11,100  Climbing Indianapolis TRACON
03:42PM 39.9500 -86.8500 166° South 171 197 11,100 -180 Level Indianapolis TRACON
03:43PM 39.9453 -86.8497 177° South 172 198 10,900 -180 Descending Chicago Center
03:44PM 39.8986 -86.8317 163° South 173 199 10,900  Level Indianapolis Center
03:45PM 39.8519 -86.8150 165° South 173 199 10,900  Level Indianapolis Center
03:46PM 39.8056 -86.7975 164° South 173 199 10,900  Level Indianapolis Center
03:47PM 39.7600 -86.7808 164° South 173 199 10,900  Level Indianapolis Center
03:48PM 39.7125 -86.7633 164° South 174 200 10,900  Level Indianapolis Center
03:49PM 39.6567 -86.7447 166° South 174 200 10,900  Level Indianapolis Center
03:50PM 39.6103 -86.7267 163° South 174 200 10,900  Level Indianapolis Center
03:51PM 39.5647 -86.7094 164° South 174 200 10,900  Level Indianapolis Center
03:52PM 39.5181 -86.6942 166° South 174 200 10,900  Level Indianapolis Center
03:53PM 39.4719 -86.6772 164° South 174 200 10,900  Level Indianapolis Center
03:54PM 39.4164 -86.6578 165° South 174 200 10,900  Level Indianapolis Center
03:55PM 39.3711 -86.6406 164° South 173 199 10,900  Level Indianapolis Center
03:56PM 39.3250 -86.6250 165° South 173 199 10,900  Level Indianapolis Center
03:57PM 39.2792 -86.6086 165° South 173 199 10,900  Level Indianapolis Center
03:58PM 39.2331 -86.5919 164° South 173 199 10,900  Level Indianapolis Center
03:59PM 39.1772 -86.5725 165° South 173 199 11,000  Climbing Indianapolis Center
04:00PM 39.1303 -86.5561 165° South 173 199 11,000 -60 Level Indianapolis Center
04:01PM 39.0844 -86.5389 164° South 173 199 10,900 -60 Descending Indianapolis Center
04:02PM 39.0375 -86.5228 165° South 173 199 10,900  Level Indianapolis Center
04:04PM 38.9914 -86.5061 164° South 173 199 10,900  Level Indianapolis Center
04:05PM 38.9447 -86.4908 166° South 173 199 11,000  Climbing Indianapolis Center
04:06PM 38.8889 -86.4708 164° South 173 199 11,000  Level Indianapolis Center
04:07PM 38.8400 -86.4539 165° South 173 199 11,000  Level Indianapolis Center
04:08PM 38.7933 -86.4364 164° South 174 200 11,000  Level Indianapolis Center
04:09PM 38.7458 -86.4211 166° South 174 200 11,000 -60 Level Indianapolis Center
04:10PM 38.6983 -86.4044 165° South 174 200 10,900  Descending Indianapolis Center
04:11PM 38.6514 -86.3872 164° South 174 200 11,000  Climbing Indianapolis Center
04:12PM 38.6044 -86.3706 164° South 174 200 11,000  Level Indianapolis Center
04:13PM 38.5481 -86.3517 165° South 174 200 11,000 -60 Level Indianapolis Center
04:14PM 38.5011 -86.3347 164° South 174 200 10,900  Descending Indianapolis Center
04:15PM 38.4547 -86.3192 165° South 174 200 11,000  Climbing Indianapolis Center
04:16PM 38.4069 -86.3022 164° South 174 200 11,000  Level Indianapolis Center
04:17PM 38.3606 -86.2856 164° South 174 200 11,000  Level Indianapolis Center
04:18PM 38.3139 -86.2697 165° South 174 200 11,000 -60 Level Indianapolis Center
04:19PM 38.2675 -86.2533 164° South 174 200 10,900  Descending Indianapolis Center
04:20PM 38.2094 -86.2336 165° South 174 200 11,000  Climbing Indianapolis Center
04:21PM 38.1631 -86.2178 165° South 174 200 11,000  Level Indianapolis Center
04:22PM 38.1153 -86.2006 164° South 174 200 11,000 -60 Level Indianapolis Center
04:23PM 38.0672 -86.1842 165° South 175 201 10,900  Descending Indianapolis Center
04:24PM 38.0194 -86.1675 165° South 175 201 11,000  Climbing Indianapolis Center
04:25PM 37.9711 -86.1511 165° South 175 201 11,000 -60 Level Indianapolis Center
04:26PM 37.9231 -86.1358 166° South 176 203 10,900  Descending Indianapolis Center
04:27PM 37.8658 -86.1144 164° South 176 203 11,000  Climbing Indianapolis Center
04:28PM 37.8183 -86.0989 165° South 176 203 11,000  Level Indianapolis Center
04:29PM 37.7697 -86.0828 165° South 177 204 11,000  Level Indianapolis Center
04:30PM 37.7222 -86.0650 164° South 177 204 11,000  Level Indianapolis Center
04:31PM 37.6753 -86.0494 165° South 177 204 11,000  Level Indianapolis Center
04:33PM 37.6275 -86.0325 164° South 176 203 11,000  Level Indianapolis Center
04:34PM 37.5794 -86.0186 167° South 176 203 11,000  Level Indianapolis Center
04:35PM 37.5239 -85.9989 164° South 176 203 11,000  Level Indianapolis Center
04:36PM 37.4747 -85.9806 164° South 178 205 11,000  Level Indianapolis Center
04:37PM 37.4267 -85.9650 166° South 178 205 11,000  Level Indianapolis Center
04:38PM 37.3775 -85.9489 165° South 178 205 11,000  Level Indianapolis Center
04:39PM 37.3281 -85.9325 165° South 179 206 11,000  Level Indianapolis Center
04:40PM 37.2786 -85.9153 165° South 180 207 11,000  Level Indianapolis Center
04:41PM 37.2214 -85.8967 165° South 180 207 11,000  Level Indianapolis Center
04:42PM 37.1722 -85.8800 165° South 180 207 11,000  Level Indianapolis Center
04:43PM 37.1228 -85.8614 163° South 180 207 11,000  Level Indianapolis Center
04:45PM 37.0239 -85.8297 166° South 181 208 11,000  Level Indianapolis Center
04:46PM 36.9742 -85.8125 165° South 181 208 11,000  Level Indianapolis Center
04:47PM 36.9247 -85.7972 166° South 181 208 11,000  Level Indianapolis Center
04:48PM 36.8661 -85.7764 164° South 182 209 11,000  Level Indianapolis Center
04:49PM 36.8169 -85.7592 164° South 182 209 11,000  Level Indianapolis Center
04:50PM 36.7669 -85.7436 166° South 182 209 11,000  Level Indianapolis Center
04:51PM 36.7094 -85.7256 166° South 182 209 11,100 60 Climbing Memphis Center
04:52PM 36.6636 -85.7100 165° South 182 209 11,200 240 Climbing Memphis Center
04:53PM 36.6167 -85.6947 165° South 178 205 11,600 180 Climbing Memphis Center
04:54PM 36.5706 -85.6786 164° South 172 198 11,600  Level Memphis Center
04:55PM 36.5136 -85.6592 165° South 173 199 11,600  Level Memphis Center
04:56PM 36.4658 -85.6442 166° South 176 203 11,600  Level Memphis Center
04:57PM 36.4183 -85.6283 165° South 176 203 11,600  Level Memphis Center
04:58PM 36.3708 -85.6125 165° South 176 203 11,600  Level Memphis Center
05:00PM 36.3231 -85.5969 165° South 177 204 11,600  Level Memphis Center
05:01PM 36.2747 -85.5811 165° South 177 204 11,600  Level Memphis Center
05:02PM 36.2167 -85.5631 166° South 177 204 11,600  Level Memphis Center
05:03PM 36.1689 -85.5467 165° South 177 204 11,600  Level Memphis Center
05:04PM 36.1200 -85.5308 165° South 178 205 11,600  Level Memphis Center
05:05PM 36.0717 -85.5156 166° South 178 205 11,600  Level Memphis Center
05:06PM 36.0233 -85.4989 164° South 178 205 11,600 -60 Level Memphis Center
05:07PM 35.9647 -85.4803 166° South 179 206 11,500 -60 Descending Memphis Center
05:08PM 35.9161 -85.4647 165° South 179 206 11,500  Level Memphis Center
05:09PM 35.8675 -85.4489 165° South 179 206 11,500  Level Memphis Center
05:10PM 35.8186 -85.4325 165° South 179 206 11,500  Level Memphis Center
05:11PM 35.7700 -85.4175 166° South 179 206 11,500  Level Memphis Center
05:12PM 35.7219 -85.4022 166° South 180 207 11,500  Level Memphis Center
05:13PM 35.6647 -85.3828 165° South 179 206 11,500  Level Memphis Center
05:14PM 35.6169 -85.3672 165° South 179 206 11,600 -60 Climbing Memphis Center
05:15PM 35.5697 -85.3525 166° South 179 206 11,400 -120 Descending Memphis Center
05:16PM 35.5231 -85.3378 166° South 178 205 11,400  Level Memphis Center
05:17PM 35.4761 -85.3222 165° South 178 205 11,400  Level Memphis Center
05:18PM 35.4192 -85.3044 166° South 177 204 11,500  Climbing Memphis Center
05:19PM 35.3714 -85.2881 164° South 177 204 11,400 -60 Descending Memphis Center
05:20PM 35.3225 -85.2736 166° South 178 205 11,400  Level Memphis Center
05:21PM 35.2753 -85.2572 164° South 178 205 11,400  Level Memphis Center
05:22PM 35.2267 -85.2431 167° South 178 205 11,400  Level Memphis Center
05:23PM 35.1792 -85.2267 164° South 178 205 11,400  Level Memphis Center
05:24PM 35.1214 -85.2094 166° South 178 205 11,400  Level Memphis Center
05:25PM 35.0733 -85.1942 165° South 178 205 11,400  Level Memphis Center
05:26PM 35.0239 -85.1797 167° South 179 206 11,500  Climbing Memphis Center
05:27PM 34.9772 -85.1617 162° South 179 206 11,400  Descending Memphis Center
05:28PM 34.9286 -85.1436 163° South 179 206 11,500 -300 Climbing Memphis Center
05:30PM 34.8806 -85.1256 163° South 179 206 10,900 -840 Descending Memphis Center
05:31PM 34.8144 -85.1014 163° South 180 207 9,700 -960 Descending Atlanta Center
05:32PM 34.7708 -85.0881 166° South 180 207 8,800 -1,080 Descending Atlanta Center
05:33PM 34.7228 -85.0700 163° South 180 207 7,600 -1,200 Descending Atlanta Center
05:34PM 34.6772 -85.0542 164° South 180 207 6,500 -1,080 Descending Atlanta Center
05:35PM 34.6375 -85.0361 159° South 180 207 5,500 -840 Descending Atlanta Center
05:36PM 34.5919 -85.0178 162° South 180 207 4,900 -300 Descending Atlanta Center
05:37PM 34.5439 -85.0072 170° South 180 207 4,900  Level Atlanta Center
05:38PM 34.4961 -84.9864 160° South 180 207 4,900  Level Atlanta Center
05:39PM 34.4503 -84.9708 164° South 180 207 4,900  Level Atlanta Center
05:40PM 34.4044 -84.9528 162° South 180 207 4,900 -60 Level Atlanta Center
05:41PM 34.3586 -84.9372 164° South 180 207 4,800 -120 Descending Atlanta Center